Time;durP1;ratioP1;P1;durP2;ratioP2;P2;SDS_P1;SDS_P2;PMS_P1;PMS_P2;Temp;Humidity;BMP_temperature;BMP_pressure;BME280_temperature;BME280_humidity;BME280_pressure;Samples;Min_cycle;Max_cycle;Signal;HPM_P1;HPM_P2
2023/10/22 08:58:34;;;;;;;;;26.50;25.75;;;;;;;;5055582;27;13498;-73
2023/10/22 09:01:00;;;;;;;;;580.75;484.25;;;;;;;;4615274;28;12032;-72
2023/10/22 09:03:25;;;;;;;;;13.00;9.75;;;;;;;;4963246;28;11330;-70
2023/10/22 09:05:51;;;;;;;;;418.75;346.25;;;;;;;;4701537;28;11952;-71
2023/10/22 09:08:16;;;;;;;;;982.50;642.50;;;;;;;;4824056;28;12365;-69
2023/10/22 09:10:41;;;;;;;;;5.00;2.00;;;;;;;;4987826;28;10894;-68
2023/10/22 09:13:07;;;;;;;;;18.25;16.25;;;;;;;;5050777;28;8916;-68
2023/10/22 09:15:41;;;;;;;;;14.75;14.75;;;;;;;;5045739;28;8855;-68
2023/10/22 09:18:06;;;;;;;;;20.00;17.00;;;;;;;;5047120;28;8913;-69
2023/10/22 09:20:34;;;;;;;;;18.25;12.25;;;;;;;;5050417;28;10302;-69
2023/10/22 09:23:19;;;;;;;;;17.75;17.00;;;;;;;;5066689;28;8805;-68
2023/10/22 09:25:48;;;;;;;;;18.25;16.00;;;;;;;;5053168;28;10249;-68
2023/10/22 09:28:14;;;;;;;;;15.25;14.50;;;;;;;;5020063;28;11055;-68
2023/10/22 09:30:40;;;;;;;;;24.50;24.50;;;;;;;;5059564;28;9993;-68
2023/10/22 09:33:08;;;;;;;;;29.25;27.25;;;;;;;;5046784;28;9568;-67
2023/10/22 09:35:33;;;;;;;;;74.00;57.25;;;;;;;;5046059;28;10814;-67
2023/10/22 09:38:00;;;;;;;;;31.50;27.75;;;;;;;;5046570;28;11734;-67
2023/10/22 09:40:25;;;;;;;;;32.75;26.75;;;;;;;;5065246;28;8831;-68
2023/10/22 09:42:51;;;;;;;;;21.25;17.25;;;;;;;;5057775;28;10376;-68
2023/10/22 09:45:20;;;;;;;;;12.50;11.00;;;;;;;;5048446;28;8796;-69
2023/10/22 09:47:50;;;;;;;;;18.25;17.75;;;;;;;;5051185;28;8867;-67
2023/10/22 09:50:18;;;;;;;;;14.75;13.25;;;;;;;;5042177;28;10859;-68
2023/10/22 09:52:44;;;;;;;;;11.75;10.25;;;;;;;;5046286;28;9718;-68
2023/10/22 09:55:16;;;;;;;;;10.25;9.25;;;;;;;;5045633;28;9769;-68
2023/10/22 09:57:43;;;;;;;;;10.75;9.00;;;;;;;;5046304;28;8840;-68
2023/10/22 10:00:12;;;;;;;;;11.75;9.75;;;;;;;;5045700;28;10487;-68
2023/10/22 10:02:38;;;;;;;;;8.00;8.00;;;;;;;;5061182;28;9927;-68
2023/10/22 10:05:04;;;;;;;;;12.00;9.00;;;;;;;;5044632;28;9856;-67
2023/10/22 10:07:30;;;;;;;;;13.00;10.75;;;;;;;;5037025;28;11085;-71
2023/10/22 10:09:55;;;;;;;;;9.00;8.25;;;;;;;;5047798;28;8855;-68
2023/10/22 10:12:23;;;;;;;;;9.75;8.00;;;;;;;;5030932;28;9762;-69
2023/10/22 10:14:49;;;;;;;;;6.75;5.00;;;;;;;;5047524;28;8904;-69
2023/10/22 10:17:15;;;;;;;;;9.00;6.25;;;;;;;;5032537;28;9758;-67
2023/10/22 10:19:40;;;;;;;;;9.00;7.50;;;;;;;;5032386;28;8930;-68
2023/10/22 10:22:06;;;;;;;;;9.75;7.00;;;;;;;;5032491;28;9835;-68
2023/10/22 10:24:32;;;;;;;;;7.75;4.00;;;;;;;;5047139;28;8835;-69
2023/10/22 10:26:57;;;;;;;;;5.00;5.00;;;;;;;;5032264;28;8823;-69
2023/10/22 10:29:24;;;;;;;;;8.50;6.50;;;;;;;;5032286;28;9579;-69
2023/10/22 10:31:52;;;;;;;;;7.00;4.00;;;;;;;;5038598;28;9562;-69
2023/10/22 10:34:22;;;;;;;;;5.50;5.50;;;;;;;;5049192;28;9520;-68
2023/10/22 10:36:48;;;;;;;;;4.25;4.00;;;;;;;;5032570;28;9930;-69
2023/10/22 10:39:32;;;;;;;;;8.00;8.00;;;;;;;;5033328;28;10214;-71
2023/10/22 11:47:22;;;;;;;;;10.50;6.00;;;;;;;;5147816;27;13313;-67
2023/10/22 11:49:47;;;;;;;;;12.75;10.50;;;;;;;;5131003;27;11031;-72
2023/10/22 11:52:38;;;;;;;;;1.75;1.75;;;;;;;;5149582;27;10331;-72
2023/10/22 11:55:04;;;;;;;;;7.50;5.00;;;;;;;;5139796;27;9217;-69
2023/10/22 11:57:30;;;;;;;;;5.00;2.00;;;;;;;;5149462;27;9771;-67
2023/10/22 11:59:55;;;;;;;;;21.50;19.50;;;;;;;;5149417;27;9566;-68
2023/10/22 12:02:21;;;;;;;;;23.25;18.25;;;;;;;;5149073;27;10821;-68
2023/10/22 12:04:47;;;;;;;;;35.50;30.00;;;;;;;;5149098;27;8781;-68
2023/10/22 12:07:12;;;;;;;;;35.50;29.00;;;;;;;;5149153;27;8773;-70
2023/10/22 12:09:37;;;;;;;;;4.75;4.00;;;;;;;;5148974;27;8785;-67
2023/10/22 12:12:05;;;;;;;;;1.25;1.25;;;;;;;;5149184;27;8777;-68
2023/10/22 12:14:30;;;;;;;;;4.00;4.00;;;;;;;;5149739;27;8778;-70
2023/10/22 12:16:55;;;;;;;;;9.00;6.25;;;;;;;;5150366;27;9686;-68
2023/10/22 12:19:20;;;;;;;;;10.50;10.50;;;;;;;;5148048;27;8798;-70
2023/10/22 12:21:46;;;;;;;;;1.00;1.00;;;;;;;;5147947;27;8815;-69
2023/10/22 12:24:11;;;;;;;;;1.00;0.00;;;;;;;;5129119;27;8817;-70
2023/10/22 12:26:36;;;;;;;;;1.00;0.00;;;;;;;;5148260;27;8821;-69
2023/10/22 12:29:02;;;;;;;;;4.00;2.00;;;;;;;;5148246;27;8889;-71
2023/10/22 12:31:27;;;;;;;;;2.00;2.00;;;;;;;;5149007;27;8801;-69
2023/10/22 12:33:52;;;;;;;;;3.50;2.00;;;;;;;;5148881;27;8782;-70
2023/10/22 12:36:17;;;;;;;;;0.00;0.00;;;;;;;;5150182;27;8773;-73
2023/10/22 12:38:43;;;;;;;;;1.00;0.00;;;;;;;;5130126;27;8814;-72
2023/10/22 12:41:08;;;;;;;;;0.00;0.00;;;;;;;;5148109;27;8777;-69
2023/10/22 12:43:33;;;;;;;;;0.00;0.00;;;;;;;;5148720;27;8917;-68
2023/10/22 12:46:01;;;;;;;;;0.00;0.00;;;;;;;;5148447;27;8871;-68
2023/10/22 12:48:26;;;;;;;;;1.25;1.00;;;;;;;;5148614;27;8786;-68
2023/10/22 12:50:51;;;;;;;;;1.00;0.00;;;;;;;;5148642;27;10190;-69
2023/10/22 12:53:17;;;;;;;;;1.00;0.00;;;;;;;;5147403;27;8786;-68
2023/10/22 12:55:51;;;;;;;;;2.25;1.00;;;;;;;;5146634;27;8777;-69
2023/10/22 12:58:16;;;;;;;;;2.00;2.00;;;;;;;;5131645;27;8810;-68
2023/10/22 13:00:41;;;;;;;;;0.00;0.00;;;;;;;;5134453;27;9607;-68
2023/10/22 13:03:06;;;;;;;;;1.50;1.00;;;;;;;;5134493;27;8780;-68
2023/10/22 13:05:33;;;;;;;;;1.00;0.25;;;;;;;;5135878;27;8801;-69
2023/10/22 13:07:59;;;;;;;;;1.00;1.00;;;;;;;;5135030;27;8816;-68
2023/10/22 13:10:24;;;;;;;;;1.25;0.75;;;;;;;;5134338;27;10194;-69
2023/10/22 13:12:49;;;;;;;;;0.25;0.25;;;;;;;;5134005;27;8874;-69
2023/10/22 13:15:14;;;;;;;;;1.25;0.50;;;;;;;;5133961;27;8816;-67
2023/10/22 13:17:40;;;;;;;;;1.67;0.00;;;;;;;;5132588;27;8778;-67
2023/10/22 13:20:05;;;;;;;;;5.00;1.25;;;;;;;;5131892;27;8797;-71
2023/10/22 13:22:31;;;;;;;;;1.50;1.50;;;;;;;;5134003;27;8786;-68
2023/10/22 13:24:56;;;;;;;;;1.25;1.00;;;;;;;;5115738;27;8853;-70
2023/10/22 13:27:22;;;;;;;;;2.00;1.00;;;;;;;;5115470;27;8797;-70
2023/10/22 13:29:47;;;;;;;;;1.00;1.00;;;;;;;;5117057;27;8889;-68
2023/10/22 13:32:12;;;;;;;;;1.00;1.00;;;;;;;;5134322;27;8762;-68
2023/10/22 13:34:40;;;;;;;;;3.00;2.00;;;;;;;;5115635;27;8915;-68
2023/10/22 13:37:05;;;;;;;;;2.00;0.33;;;;;;;;5117560;27;8840;-68
2023/10/22 13:39:33;;;;;;;;;1.75;1.75;;;;;;;;5133831;27;10015;-67
2023/10/22 13:41:58;;;;;;;;;4.50;3.00;;;;;;;;5133579;27;8774;-69
2023/10/22 13:44:24;;;;;;;;;0.33;0.00;;;;;;;;5133711;27;10217;-69
2023/10/22 13:46:49;;;;;;;;;0.00;0.00;;;;;;;;5133005;27;8813;-74
2023/10/22 13:49:14;;;;;;;;;1.00;0.00;;;;;;;;5133240;27;8774;-74
2023/10/22 13:51:39;;;;;;;;;1.00;0.00;;;;;;;;5133109;27;9696;-75
2023/10/22 13:54:05;;;;;;;;;1.00;0.67;;;;;;;;5105130;27;8801;-74
2023/10/22 13:56:30;;;;;;;;;0.33;0.00;;;;;;;;5122010;27;9576;-74
2023/10/22 13:58:55;;;;;;;;;0.00;0.00;;;;;;;;5127108;27;8872;-74
2023/10/22 14:01:21;;;;;;;;;1.00;0.00;;;;;;;;5124139;27;8774;-74
2023/10/22 14:03:46;;;;;;;;;2.00;0.00;;;;;;;;5122498;27;9591;-74
2023/10/22 14:06:12;;;;;;;;;0.67;0.00;;;;;;;;5113807;27;8808;-74
2023/10/22 14:08:39;;;;;;;;;0.00;0.00;;;;;;;;5115229;27;8807;-69
2023/10/22 14:11:05;;;;;;;;;0.00;0.00;;;;;;;;5122565;27;9343;-69
2023/10/22 14:13:30;;;;;;;;;0.00;0.00;;;;;;;;5101782;28;9472;-70
2023/10/22 14:16:02;;;;;;;;;0.00;0.00;;;;;;;;5128930;27;8801;-70
2023/10/22 14:18:28;;;;;;;;;1.50;0.00;;;;;;;;5132467;27;8794;-69
2023/10/22 14:20:53;;;;;;;;;0.00;0.00;;;;;;;;5120805;27;9511;-69
2023/10/22 14:23:18;;;;;;;;;1.00;0.00;;;;;;;;5114264;27;8778;-68
2023/10/22 14:25:54;;;;;;;;;0.00;0.00;;;;;;;;5132367;27;8841;-68
2023/10/22 14:28:19;;;;;;;;;0.00;0.00;;;;;;;;5123315;27;8910;-69
2023/10/22 14:30:45;;;;;;;;;0.00;0.00;;;;;;;;5103956;27;9431;-69
2023/10/22 14:33:10;;;;;;;;;0.67;0.00;;;;;;;;5120497;27;9676;-68
2023/10/22 14:35:36;;;;;;;;;0.00;0.00;;;;;;;;5094032;28;8808;-68
2023/10/22 14:38:01;;;;;;;;;0.00;0.00;;;;;;;;5115581;27;8799;-69
2023/10/22 14:40:27;;;;;;;;;0.00;0.00;;;;;;;;5121392;27;8834;-69
2023/10/22 14:42:52;;;;;;;;;0.50;0.50;;;;;;;;5121042;27;8806;-69
2023/10/22 14:45:18;;;;;;;;;1.50;1.50;;;;;;;;5122231;27;8834;-77
2023/10/22 14:47:43;;;;;;;;;2.00;0.25;;;;;;;;5110739;27;8812;-78
2023/10/22 14:50:09;;;;;;;;;0.75;0.00;;;;;;;;5130214;27;8798;-74
2023/10/22 14:52:34;;;;;;;;;0.00;0.00;;;;;;;;5122523;27;9573;-77
2023/10/22 14:54:59;;;;;;;;;0.00;0.00;;;;;;;;5132729;27;8833;-71
2023/10/22 14:57:24;;;;;;;;;0.00;0.00;;;;;;;;5131499;27;8835;-72
2023/10/22 14:59:50;;;;;;;;;4.50;4.50;;;;;;;;5131338;27;8928;-77
2023/10/22 15:02:15;;;;;;;;;0.25;0.00;;;;;;;;5131746;27;8797;-80
2023/10/22 15:04:40;;;;;;;;;6.00;3.00;;;;;;;;5102475;27;8808;-66
2023/10/22 15:07:06;;;;;;;;;4.00;4.00;;;;;;;;5127627;27;9590;-66
2023/10/22 15:09:31;;;;;;;;;3.00;3.00;;;;;;;;5126012;27;9484;-67
2023/10/22 15:11:56;;;;;;;;;1.00;1.00;;;;;;;;5130998;27;8793;-67
2023/10/22 15:14:21;;;;;;;;;1.75;1.75;;;;;;;;5131108;27;8804;-68
2023/10/22 15:16:47;;;;;;;;;3.00;2.25;;;;;;;;5131438;27;9475;-67
2023/10/22 15:19:12;;;;;;;;;1.00;0.00;;;;;;;;5122440;27;9023;-67
2023/10/22 15:21:38;;;;;;;;;2.25;2.25;;;;;;;;5120319;27;8807;-67
2023/10/22 15:24:04;;;;;;;;;0.33;0.33;;;;;;;;5119354;27;8871;-66
2023/10/22 15:26:29;;;;;;;;;2.00;0.00;;;;;;;;5113309;27;9423;-66
2023/10/22 15:28:54;;;;;;;;;1.25;0.00;;;;;;;;5121631;27;8916;-66
2023/10/22 15:31:20;;;;;;;;;0.25;0.25;;;;;;;;5131521;27;8778;-66
2023/10/22 15:33:46;;;;;;;;;2.00;2.00;;;;;;;;5131700;27;8793;-66
2023/10/22 15:36:11;;;;;;;;;1.00;1.00;;;;;;;;5131254;27;9580;-67
2023/10/22 15:38:37;;;;;;;;;3.50;2.75;;;;;;;;5121730;27;8756;-66
2023/10/22 15:41:05;;;;;;;;;2.00;1.00;;;;;;;;5132502;27;8790;-71
2023/10/22 15:43:30;;;;;;;;;5.00;3.00;;;;;;;;5131049;27;8910;-69
2023/10/22 15:45:55;;;;;;;;;1.75;0.00;;;;;;;;5130959;27;9811;-69
2023/10/22 15:48:23;;;;;;;;;6.00;5.25;;;;;;;;5113079;27;8797;-66
2023/10/22 15:50:48;;;;;;;;;4.50;1.25;;;;;;;;5131517;27;8800;-70
2023/10/22 15:53:17;;;;;;;;;69.50;53.50;;;;;;;;5130946;27;9565;-70
2023/10/22 15:55:43;;;;;;;;;37.25;30.75;;;;;;;;5131320;27;9554;-67
2023/10/22 15:58:08;;;;;;;;;15.50;10.50;;;;;;;;5127279;27;10825;-67
2023/10/22 16:00:33;;;;;;;;;11.25;10.00;;;;;;;;5130889;27;9742;-67
2023/10/22 16:02:58;;;;;;;;;6.00;6.00;;;;;;;;5112579;27;8798;-68
2023/10/22 16:05:24;;;;;;;;;9.00;9.00;;;;;;;;5112799;27;8846;-69
2023/10/22 16:07:49;;;;;;;;;10.25;10.25;;;;;;;;5131232;27;8769;-69
2023/10/22 16:10:14;;;;;;;;;2.00;1.00;;;;;;;;5114043;27;8821;-70
2023/10/22 16:12:40;;;;;;;;;0.00;0.00;;;;;;;;5130240;27;8828;-73
2023/10/22 16:15:06;;;;;;;;;0.00;0.00;;;;;;;;5130416;27;8778;-71
2023/10/22 16:17:31;;;;;;;;;0.00;0.00;;;;;;;;5129781;27;9589;-70
2023/10/22 16:19:57;;;;;;;;;0.00;0.00;;;;;;;;5130110;27;9183;-70
2023/10/22 16:22:27;;;;;;;;;3.00;1.00;;;;;;;;5130606;27;8878;-71
2023/10/22 16:24:52;;;;;;;;;3.75;2.00;;;;;;;;5129950;27;8814;-75
2023/10/22 16:27:17;;;;;;;;;1.67;1.00;;;;;;;;5129225;27;9486;-77
2023/10/22 16:29:42;;;;;;;;;1.00;1.00;;;;;;;;5130253;27;8762;-77
2023/10/22 16:32:08;;;;;;;;;0.67;0.67;;;;;;;;5131267;27;8894;-75
2023/10/22 16:34:34;;;;;;;;;1.00;0.00;;;;;;;;5134178;27;8889;-70
2023/10/22 16:37:00;;;;;;;;;2.00;2.00;;;;;;;;5133773;27;8786;-70
2023/10/22 16:39:26;;;;;;;;;1.00;1.00;;;;;;;;5132402;27;9419;-71
2023/10/22 16:41:52;;;;;;;;;2.00;1.00;;;;;;;;5135512;27;8814;-70
2023/10/22 16:44:17;;;;;;;;;4.00;2.00;;;;;;;;5133700;27;9311;-71
2023/10/22 16:46:42;;;;;;;;;3.75;3.25;;;;;;;;5115454;27;9590;-70
2023/10/22 16:49:08;;;;;;;;;1.50;1.25;;;;;;;;5132969;27;8773;-71
2023/10/22 16:51:33;;;;;;;;;1.00;1.00;;;;;;;;5133700;27;8861;-70
2023/10/22 16:53:58;;;;;;;;;2.00;2.00;;;;;;;;5133883;27;8805;-70
2023/10/22 16:56:23;;;;;;;;;1.75;1.50;;;;;;;;5133293;27;8884;-70
2023/10/22 16:58:49;;;;;;;;;3.50;2.00;;;;;;;;5132046;27;8869;-71
2023/10/22 17:01:14;;;;;;;;;4.00;3.75;;;;;;;;5115332;27;8833;-70
2023/10/22 17:03:39;;;;;;;;;3.50;2.00;;;;;;;;5115150;27;8818;-73
2023/10/22 17:06:05;;;;;;;;;4.75;3.00;;;;;;;;5133298;27;8920;-71
2023/10/22 17:08:30;;;;;;;;;2.75;1.50;;;;;;;;5132353;27;8881;-71
2023/10/22 17:10:56;;;;;;;;;2.50;2.50;;;;;;;;5132953;27;8793;-71
2023/10/22 17:13:21;;;;;;;;;2.50;2.50;;;;;;;;5114323;27;8860;-71
2023/10/22 17:15:47;;;;;;;;;12.25;8.00;;;;;;;;5133183;27;8916;-72
2023/10/22 17:18:12;;;;;;;;;50.50;40.25;;;;;;;;5132303;27;8815;-72
2023/10/22 17:20:38;;;;;;;;;59.25;45.00;;;;;;;;5132980;27;8881;-72
2023/10/22 17:23:04;;;;;;;;;16.25;16.00;;;;;;;;5114818;27;8801;-73
2023/10/22 17:25:29;;;;;;;;;7.75;6.50;;;;;;;;5132908;27;10605;-74
2023/10/22 17:27:54;;;;;;;;;5.50;5.50;;;;;;;;5131496;27;8770;-72
2023/10/22 17:30:20;;;;;;;;;4.50;4.50;;;;;;;;5132887;27;8859;-71
2023/10/22 17:32:45;;;;;;;;;4.00;3.50;;;;;;;;5133029;27;8809;-70
2023/10/22 17:35:10;;;;;;;;;6.25;5.00;;;;;;;;5132188;27;9673;-78
2023/10/22 17:37:35;;;;;;;;;4.25;4.00;;;;;;;;5132011;27;8785;-76
2023/10/22 17:40:01;;;;;;;;;8.00;7.25;;;;;;;;5132906;27;8785;-74
2023/10/22 17:42:26;;;;;;;;;5.00;5.00;;;;;;;;5114225;27;8818;-73
2023/10/22 17:44:51;;;;;;;;;8.25;6.50;;;;;;;;5113785;27;8833;-71
2023/10/22 17:47:17;;;;;;;;;6.25;6.00;;;;;;;;5131684;27;8813;-74
2023/10/22 17:49:42;;;;;;;;;8.75;7.00;;;;;;;;5132643;27;8894;-73
2023/10/22 17:52:07;;;;;;;;;6.00;4.75;;;;;;;;5132740;27;8781;-75
2023/10/22 17:54:33;;;;;;;;;7.00;5.00;;;;;;;;5113637;27;9650;-77
2023/10/22 17:56:58;;;;;;;;;11.00;7.25;;;;;;;;5132373;27;9515;-76
2023/10/22 17:59:23;;;;;;;;;6.00;4.25;;;;;;;;5112572;27;8801;-76
2023/10/22 18:01:48;;;;;;;;;9.00;7.25;;;;;;;;5132806;27;8812;-76
2023/10/22 18:04:14;;;;;;;;;7.00;7.00;;;;;;;;5132285;27;8822;-72
2023/10/22 18:06:39;;;;;;;;;7.25;7.00;;;;;;;;5123837;27;8904;-76
2023/10/22 18:09:04;;;;;;;;;8.25;6.50;;;;;;;;5131029;27;9551;-76
2023/10/22 18:11:30;;;;;;;;;7.00;7.00;;;;;;;;5133255;27;8806;-77
2023/10/22 18:13:56;;;;;;;;;5.50;5.50;;;;;;;;5111797;27;10039;-77
2023/10/22 18:16:21;;;;;;;;;9.75;7.25;;;;;;;;5130530;27;8937;-79
2023/10/22 18:18:46;;;;;;;;;13.50;9.00;;;;;;;;5128749;27;10131;-80
2023/10/22 18:21:12;;;;;;;;;10.00;9.00;;;;;;;;5121406;27;8844;-72
2023/10/22 18:23:37;;;;;;;;;12.00;8.75;;;;;;;;5130030;27;8797;-76
2023/10/22 18:26:03;;;;;;;;;16.25;12.50;;;;;;;;5129351;27;8829;-75
2023/10/22 18:28:29;;;;;;;;;13.00;9.25;;;;;;;;5120285;27;8912;-80
2023/10/22 18:30:54;;;;;;;;;9.00;8.75;;;;;;;;5113005;27;10377;-82
2023/10/22 18:33:19;;;;;;;;;9.50;9.50;;;;;;;;5131076;27;8782;-69
2023/10/22 18:35:45;;;;;;;;;15.00;11.00;;;;;;;;5132384;27;8801;-75
2023/10/22 18:38:10;;;;;;;;;10.00;9.25;;;;;;;;5130810;27;8865;-71
2023/10/22 18:40:35;;;;;;;;;10.25;10.25;;;;;;;;5132645;27;8782;-70
2023/10/22 18:43:00;;;;;;;;;9.50;7.50;;;;;;;;5113753;27;8817;-72
2023/10/22 18:45:26;;;;;;;;;24.50;16.00;;;;;;;;5129297;27;8836;-71
2023/10/22 18:47:51;;;;;;;;;9.50;9.50;;;;;;;;5107671;27;8794;-74
2023/10/22 18:50:16;;;;;;;;;9.00;8.00;;;;;;;;5130657;27;8782;-70
2023/10/22 18:52:42;;;;;;;;;13.50;10.00;;;;;;;;5127171;27;8788;-73
2023/10/22 18:55:07;;;;;;;;;11.75;9.25;;;;;;;;5112429;27;8768;-72
2023/10/22 18:57:33;;;;;;;;;10.00;10.00;;;;;;;;5124267;27;8782;-71
2023/10/22 18:59:58;;;;;;;;;11.00;9.00;;;;;;;;5109832;27;8931;-72
2023/10/22 19:02:23;;;;;;;;;15.50;14.25;;;;;;;;5130951;27;8892;-71
2023/10/22 19:04:50;;;;;;;;;23.00;19.50;;;;;;;;5110721;27;8798;-72
2023/10/22 19:07:16;;;;;;;;;27.75;21.00;;;;;;;;5129547;27;8944;-70
2023/10/22 19:09:41;;;;;;;;;13.25;13.00;;;;;;;;5130168;27;10926;-69
2023/10/22 19:12:06;;;;;;;;;12.75;12.00;;;;;;;;5131556;27;8893;-69
2023/10/22 19:14:31;;;;;;;;;15.00;11.00;;;;;;;;5130440;27;8790;-69
2023/10/22 19:16:56;;;;;;;;;15.00;11.75;;;;;;;;5130130;27;9664;-70
2023/10/22 19:19:22;;;;;;;;;14.75;10.00;;;;;;;;5130281;27;8782;-69
2023/10/22 19:21:48;;;;;;;;;22.00;19.75;;;;;;;;5131354;27;8786;-67
2023/10/22 19:24:13;;;;;;;;;14.00;10.00;;;;;;;;5131031;27;12297;-68
2023/10/22 19:26:38;;;;;;;;;12.25;11.00;;;;;;;;5130169;27;8818;-68
2023/10/22 19:29:03;;;;;;;;;16.50;14.25;;;;;;;;5130977;27;8854;-68
2023/10/22 19:31:29;;;;;;;;;17.75;13.50;;;;;;;;5113227;27;8946;-69
2023/10/22 19:33:54;;;;;;;;;10.25;9.00;;;;;;;;5130242;27;8874;-69
2023/10/22 19:36:19;;;;;;;;;13.00;13.00;;;;;;;;5130060;27;8940;-70
2023/10/22 19:38:45;;;;;;;;;15.00;13.75;;;;;;;;5130600;27;9677;-70
2023/10/22 19:41:11;;;;;;;;;15.00;13.00;;;;;;;;5130961;27;8773;-70
2023/10/22 19:43:36;;;;;;;;;17.25;14.00;;;;;;;;5130582;27;8788;-70
2023/10/22 19:46:02;;;;;;;;;15.75;15.00;;;;;;;;5124171;27;8814;-70
2023/10/22 19:48:27;;;;;;;;;11.00;10.50;;;;;;;;5109585;27;8793;-71
2023/10/22 19:50:57;;;;;;;;;14.25;13.75;;;;;;;;5130475;27;8773;-70
2023/10/22 19:53:22;;;;;;;;;17.50;15.75;;;;;;;;5129951;27;8851;-70
2023/10/22 19:55:47;;;;;;;;;19.75;15.50;;;;;;;;5129637;27;10717;-69
2023/10/22 19:58:12;;;;;;;;;14.75;14.50;;;;;;;;5130478;27;8809;-68
2023/10/22 20:00:40;;;;;;;;;13.75;10.00;;;;;;;;5130622;27;8890;-68
2023/10/22 20:03:05;;;;;;;;;14.25;13.25;;;;;;;;5130836;27;8786;-70
2023/10/22 20:05:34;;;;;;;;;19.00;15.00;;;;;;;;5130091;27;10601;-69
2023/10/22 20:07:59;;;;;;;;;21.25;15.75;;;;;;;;5132661;27;8785;-69
2023/10/22 20:10:27;;;;;;;;;14.00;13.75;;;;;;;;5134820;27;10877;-69
2023/10/22 20:12:53;;;;;;;;;14.75;13.50;;;;;;;;5134553;27;8778;-68
2023/10/22 20:15:20;;;;;;;;;13.00;9.50;;;;;;;;5134393;27;10788;-68
2023/10/22 20:17:45;;;;;;;;;27.75;26.25;;;;;;;;5134193;27;8778;-67
2023/10/22 20:20:11;;;;;;;;;15.50;14.50;;;;;;;;5134490;27;12148;-68
2023/10/22 20:22:36;;;;;;;;;15.50;13.00;;;;;;;;5134436;27;8862;-68
